Terminal Aerodrome Forecast
Issued by NWS

Home | Current Version | Previous Version | Text Only | Print | Product List | Glossary On
Versions: 1 2 3 4 5 6 7 8 9 10 11 12 13 14
000
FTUS46 KSGX 261700
TAFPSP
TAF
KPSP 261728Z 2618/2718 VRB05KT P6SM SCT120
     FM262000 VRB05KT P6SM VCTS BKN100CB
      TEMPO 2621/2623 SHRA BKN070
     FM270000 VRB05KT P6SM BKN120
     FM270300 32011KT P6SM SCT150
     FM270700 VRB05KT P6SM SCT150=

USA.gov is the U.S. government's official web portal to all federal, state and local government web resources and services.